Time;durP1;ratioP1;P1;durP2;ratioP2;P2;SDS_P1;SDS_P2;PMS_P1;PMS_P2;Temp;Humidity;BMP_temperature;BMP_pressure;BME280_temperature;BME280_humidity;BME280_pressure;Samples;Min_cycle;Max_cycle;Signal;HPM_P1;HPM_P2
2023/06/28 00:01:00;;;;;;;12.15;5.75;;;15.80;99.90;;;;;;4895119;29;20452;-84
2023/06/28 00:03:27;;;;;;;12.17;5.67;;;15.70;99.90;;;;;;4920647;28;20428;-82
2023/06/28 00:05:52;;;;;;;15.50;5.30;;;15.80;99.90;;;;;;4914527;28;20965;-85
2023/06/28 00:08:18;;;;;;;15.23;7.05;;;15.80;99.90;;;;;;4920339;29;20452;-83
2023/06/28 00:10:44;;;;;;;12.35;5.85;;;15.80;99.90;;;;;;4938267;29;20427;-85
2023/06/28 00:13:10;;;;;;;13.23;6.28;;;15.70;99.90;;;;;;4907425;29;20437;-85
2023/06/28 00:15:36;;;;;;;12.57;6.28;;;15.70;99.90;;;;;;5011163;28;20416;-85
2023/06/28 00:18:07;;;;;;;9.65;5.68;;;15.70;99.90;;;;;;4925077;28;20449;-84
2023/06/28 00:20:34;;;;;;;11.05;5.30;;;15.70;99.90;;;;;;4904109;28;20423;-86
2023/06/28 00:23:00;;;;;;;10.68;5.07;;;15.70;99.90;;;;;;4916303;28;20429;-87
2023/06/28 00:25:25;;;;;;;10.32;5.30;;;15.60;99.90;;;;;;4935047;29;20434;-83
2023/06/28 00:27:51;;;;;;;13.07;5.53;;;15.60;99.90;;;;;;4926738;28;20441;-82
2023/06/28 00:30:17;;;;;;;9.13;5.22;;;15.50;99.90;;;;;;4908763;29;20914;-84
2023/06/28 00:32:43;;;;;;;10.10;5.07;;;15.60;99.90;;;;;;4919263;28;20488;-83
2023/06/28 00:35:09;;;;;;;10.73;5.65;;;15.50;99.90;;;;;;4976172;28;20433;-88
2023/06/28 00:37:35;;;;;;;10.55;5.50;;;15.50;99.90;;;;;;4943542;29;20485;-84
2023/06/28 00:40:01;;;;;;;9.65;5.43;;;15.50;99.90;;;;;;4936645;29;20431;-84
2023/06/28 00:42:26;;;;;;;10.20;5.43;;;15.40;99.90;;;;;;4997936;28;20606;-87
2023/06/28 00:44:52;;;;;;;10.75;4.55;;;15.40;99.90;;;;;;4907639;29;20425;-85
2023/06/28 00:47:18;;;;;;;8.50;5.10;;;15.40;99.90;;;;;;4922439;28;20555;-83
2023/06/28 00:49:45;;;;;;;12.43;6.00;;;15.50;99.90;;;;;;4881048;29;20478;-83
2023/06/28 00:52:12;;;;;;;8.60;5.17;;;15.30;99.90;;;;;;4905542;29;20427;-86
2023/06/28 00:54:39;;;;;;;10.60;5.30;;;15.30;99.90;;;;;;4968782;28;20432;-87
2023/06/28 00:57:05;;;;;;;9.88;4.97;;;15.30;99.90;;;;;;4960000;28;20511;-84
2023/06/28 00:59:31;;;;;;;8.70;5.28;;;15.30;99.90;;;;;;4922314;28;20432;-85
2023/06/28 01:01:57;;;;;;;11.65;5.93;;;15.20;99.90;;;;;;4930638;28;20439;-85
2023/06/28 01:04:23;;;;;;;8.85;4.80;;;15.30;99.90;;;;;;4931147;28;20437;-84
2023/06/28 01:06:54;;;;;;;11.40;5.47;;;15.30;99.90;;;;;;4951050;28;20847;-84
2023/06/28 01:09:21;;;;;;;10.65;4.78;;;15.30;99.90;;;;;;4941535;28;20465;-82
2023/06/28 01:11:52;;;;;;;10.48;5.70;;;15.30;99.90;;;;;;4925005;29;20432;-81
2023/06/28 01:14:19;;;;;;;9.65;5.78;;;15.20;99.90;;;;;;4912551;29;20986;-83
2023/06/28 01:16:54;;;;;;;11.55;5.30;;;15.30;99.90;;;;;;4905886;29;20451;-82
2023/06/28 01:19:29;;;;;;;9.25;5.22;;;15.30;99.90;;;;;;4912714;28;20444;-83
2023/06/28 01:21:58;;;;;;;10.02;4.78;;;15.30;99.90;;;;;;4930780;29;20429;-87
2023/06/28 01:24:25;;;;;;;11.93;5.25;;;15.30;99.90;;;;;;4931586;28;20427;-83
2023/06/28 01:26:52;;;;;;;10.73;6.13;;;15.20;99.90;;;;;;4934964;28;20440;-82
2023/06/28 01:29:21;;;;;;;10.38;4.82;;;15.20;99.90;;;;;;4939777;28;20432;-85
2023/06/28 01:31:50;;;;;;;14.40;5.43;;;15.10;99.90;;;;;;4957517;28;20437;-82
2023/06/28 01:34:16;;;;;;;11.73;5.60;;;15.20;99.90;;;;;;4976283;28;20428;-86
2023/06/28 01:36:42;;;;;;;10.30;4.50;;;15.20;99.90;;;;;;4969416;28;20445;-85
2023/06/28 01:39:09;;;;;;;9.65;4.63;;;15.20;99.90;;;;;;4979200;28;20425;-83
2023/06/28 01:41:35;;;;;;;11.07;5.47;;;15.20;99.90;;;;;;4938323;28;20510;-84
2023/06/28 01:44:01;;;;;;;12.20;5.53;;;15.20;99.90;;;;;;4947322;28;20485;-81
2023/06/28 01:46:27;;;;;;;11.05;5.55;;;15.20;99.90;;;;;;4996542;28;20556;-83
2023/06/28 01:48:53;;;;;;;8.17;4.60;;;15.30;99.90;;;;;;4899831;28;20445;-83
2023/06/28 01:51:19;;;;;;;7.77;4.87;;;15.30;99.90;;;;;;4893884;29;20452;-84
2023/06/28 01:53:45;;;;;;;8.80;5.28;;;15.30;99.90;;;;;;4905028;29;21050;-85
2023/06/28 01:56:11;;;;;;;9.40;4.70;;;15.30;99.90;;;;;;4886123;28;20447;-84
2023/06/28 01:58:37;;;;;;;10.50;4.87;;;15.30;99.90;;;;;;4953819;28;20434;-84
2023/06/28 02:01:02;;;;;;;10.50;5.50;;;15.40;99.90;;;;;;4939725;28;20467;-82
2023/06/28 02:03:28;;;;;;;8.07;5.13;;;15.30;99.90;;;;;;4919759;28;20800;-84
2023/06/28 02:05:55;;;;;;;10.32;4.78;;;15.30;99.90;;;;;;4922859;29;20444;-87
2023/06/28 02:08:21;;;;;;;11.10;4.88;;;15.30;99.90;;;;;;4931291;28;20466;-85
2023/06/28 02:10:46;;;;;;;7.60;4.72;;;15.20;99.90;;;;;;4936833;29;20435;-84
2023/06/28 02:13:12;;;;;;;7.80;4.97;;;15.20;99.90;;;;;;4915062;28;20446;-86
2023/06/28 02:15:38;;;;;;;10.48;5.43;;;15.30;99.90;;;;;;4909758;28;20512;-87
2023/06/28 02:18:05;;;;;;;9.35;4.78;;;15.30;99.90;;;;;;4916725;29;20426;-85
2023/06/28 02:20:30;;;;;;;8.35;4.82;;;15.30;99.90;;;;;;4901410;28;20438;-85
2023/06/28 02:22:56;;;;;;;7.28;4.47;;;15.40;99.90;;;;;;4910662;29;20465;-83
2023/06/28 02:25:22;;;;;;;7.32;4.05;;;15.40;99.90;;;;;;4906790;29;20449;-82
2023/06/28 02:27:48;;;;;;;9.13;3.97;;;15.30;99.90;;;;;;4931906;29;20437;-83
2023/06/28 02:30:13;;;;;;;11.73;4.83;;;15.40;99.90;;;;;;4922361;29;20421;-84
2023/06/28 02:32:39;;;;;;;9.10;4.93;;;15.40;99.90;;;;;;4891826;28;20441;-87
2023/06/28 02:35:05;;;;;;;8.80;4.40;;;15.40;99.90;;;;;;4922113;29;20524;-84
2023/06/28 02:37:31;;;;;;;8.45;3.78;;;15.50;99.90;;;;;;4932844;29;20432;-86
2023/06/28 02:39:57;;;;;;;8.97;4.30;;;15.50;99.90;;;;;;4974041;28;20509;-86
2023/06/28 02:42:23;;;;;;;9.20;4.47;;;15.40;99.90;;;;;;4908034;28;20528;-84
2023/06/28 02:44:48;;;;;;;7.43;3.50;;;15.40;99.90;;;;;;4968321;28;20429;-87
2023/06/28 02:47:14;;;;;;;7.00;3.70;;;15.50;99.90;;;;;;4924201;28;20468;-88
2023/06/28 02:49:40;;;;;;;10.00;4.05;;;15.50;99.90;;;;;;4922919;28;20464;-85
2023/06/28 02:52:06;;;;;;;7.03;3.55;;;15.50;99.90;;;;;;4896961;29;20444;-89
2023/06/28 02:54:31;;;;;;;6.00;3.30;;;15.60;99.90;;;;;;4931041;28;20437;-86
2023/06/28 02:56:57;;;;;;;7.68;3.65;;;15.50;99.90;;;;;;4923477;29;20438;-85
2023/06/28 02:59:23;;;;;;;6.90;3.47;;;15.50;99.90;;;;;;4932032;28;20415;-85
2023/06/28 03:01:49;;;;;;;5.23;2.77;;;15.50;99.90;;;;;;4983105;28;20943;-86
2023/06/28 03:04:14;;;;;;;8.90;3.30;;;15.50;99.90;;;;;;4943974;28;20437;-82
2023/06/28 03:06:41;;;;;;;10.20;4.38;;;15.50;99.90;;;;;;4939800;28;20446;-87
2023/06/28 03:09:07;;;;;;;6.60;3.83;;;15.50;99.90;;;;;;4928220;29;20405;-83
2023/06/28 03:11:33;;;;;;;6.68;4.05;;;15.50;99.90;;;;;;4928213;29;20457;-86
2023/06/28 03:14:01;;;;;;;7.20;3.80;;;15.50;99.90;;;;;;4926507;29;20776;-85
2023/06/28 03:16:26;;;;;;;6.32;3.80;;;15.50;99.90;;;;;;4930687;29;20748;-84
2023/06/28 03:18:52;;;;;;;9.60;4.55;;;15.50;99.90;;;;;;4937170;28;20412;-85
2023/06/28 03:21:18;;;;;;;9.33;4.27;;;15.50;99.90;;;;;;4952087;28;20419;-82
2023/06/28 03:23:44;;;;;;;12.50;5.30;;;15.50;99.90;;;;;;4933287;28;20447;-85
2023/06/28 03:26:10;;;;;;;7.00;4.57;;;15.50;99.90;;;;;;4910219;28;20528;-83
2023/06/28 03:28:36;;;;;;;8.17;4.30;;;15.50;99.90;;;;;;4926802;29;20474;-87
2023/06/28 03:31:02;;;;;;;8.37;4.03;;;15.50;99.90;;;;;;4944428;28;20415;-87
2023/06/28 03:33:27;;;;;;;5.73;3.80;;;15.50;99.90;;;;;;5000081;28;20466;-86
2023/06/28 03:35:53;;;;;;;6.88;3.42;;;15.50;99.90;;;;;;4907097;29;20543;-85
2023/06/28 03:38:19;;;;;;;9.23;3.80;;;15.50;99.90;;;;;;4923809;28;20460;-85
2023/06/28 03:40:45;;;;;;;9.43;3.75;;;15.40;99.90;;;;;;4922453;29;20429;-86
2023/06/28 03:43:10;;;;;;;6.25;3.58;;;15.40;99.90;;;;;;4900154;29;20522;-88
2023/06/28 03:45:36;;;;;;;7.27;4.23;;;15.50;99.90;;;;;;4999115;28;20433;-85
2023/06/28 03:48:02;;;;;;;8.63;4.73;;;15.50;99.90;;;;;;4946214;28;20439;-84
2023/06/28 03:50:28;;;;;;;10.88;4.47;;;15.50;99.90;;;;;;4978471;28;20453;-87
2023/06/28 03:52:54;;;;;;;5.43;4.20;;;15.40;99.90;;;;;;4920563;29;20434;-83
2023/06/28 03:55:20;;;;;;;5.70;4.20;;;15.40;99.90;;;;;;4924885;29;20437;-85
2023/06/28 03:57:45;;;;;;;8.17;4.43;;;15.40;99.90;;;;;;4884482;29;20441;-86
2023/06/28 04:00:12;;;;;;;9.40;5.03;;;15.40;99.90;;;;;;4926598;29;20944;-87
2023/06/28 04:02:39;;;;;;;6.75;5.43;;;15.30;99.90;;;;;;4921806;29;20497;-84
2023/06/28 04:05:05;;;;;;;8.80;5.72;;;15.30;99.90;;;;;;4889919;29;20453;-87
2023/06/28 04:07:31;;;;;;;9.10;4.83;;;15.30;99.90;;;;;;4892993;28;20480;-86
2023/06/28 04:09:57;;;;;;;7.70;5.30;;;15.10;99.90;;;;;;4926323;28;20429;-83
2023/06/28 04:12:22;;;;;;;12.48;5.15;;;15.30;99.90;;;;;;4926033;28;20456;-85
2023/06/28 04:14:49;;;;;;;8.85;5.25;;;15.30;99.90;;;;;;4926612;28;20417;-83
2023/06/28 04:17:15;;;;;;;8.25;4.38;;;15.30;99.90;;;;;;4898346;28;20449;-82
2023/06/28 04:19:41;;;;;;;6.82;4.38;;;15.30;99.90;;;;;;4920175;28;20425;-85
2023/06/28 04:22:07;;;;;;;6.30;4.15;;;15.30;99.90;;;;;;4928052;28;20422;-84
2023/06/28 04:24:32;;;;;;;7.25;4.05;;;15.30;99.90;;;;;;4923675;29;20474;-86
2023/06/28 04:27:00;;;;;;;8.37;4.53;;;15.40;99.90;;;;;;4924911;29;20941;-84
2023/06/28 04:29:28;;;;;;;6.90;4.40;;;15.40;99.90;;;;;;4908656;28;20444;-88
2023/06/28 04:32:01;;;;;;;9.38;4.15;;;15.50;99.90;;;;;;4918544;28;20424;-86
2023/06/28 04:34:26;;;;;;;7.35;3.65;;;15.40;99.90;;;;;;4924167;28;20425;-85
2023/06/28 04:36:52;;;;;;;6.93;3.83;;;15.30;99.90;;;;;;4940693;28;20441;-82
2023/06/28 04:39:18;;;;;;;5.65;3.50;;;15.40;99.90;;;;;;4929972;29;20812;-83
2023/06/28 04:41:45;;;;;;;7.57;3.97;;;15.40;99.90;;;;;;4935813;28;20441;-85
2023/06/28 04:44:13;;;;;;;8.32;4.43;;;15.40;99.90;;;;;;4923173;29;20405;-85
2023/06/28 04:46:40;;;;;;;7.05;4.30;;;15.60;99.90;;;;;;4931692;28;20441;-85
2023/06/28 04:49:06;;;;;;;7.03;4.13;;;15.60;99.90;;;;;;4923427;28;20418;-84
2023/06/28 04:51:32;;;;;;;5.80;4.10;;;15.60;99.90;;;;;;4930325;28;20463;-84
2023/06/28 04:53:59;;;;;;;6.07;4.30;;;15.60;99.90;;;;;;4894868;28;20447;-84
2023/06/28 04:56:25;;;;;;;9.57;4.32;;;15.60;99.90;;;;;;4934654;29;20449;-85
2023/06/28 04:58:51;;;;;;;8.48;4.80;;;15.60;99.90;;;;;;4924346;28;20433;-86
2023/06/28 05:01:17;;;;;;;9.65;4.70;;;15.60;99.90;;;;;;4932822;29;20477;-84
2023/06/28 05:03:43;;;;;;;7.07;4.10;;;15.60;99.90;;;;;;4941418;28;20913;-83
2023/06/28 05:06:09;;;;;;;9.02;4.50;;;15.70;99.90;;;;;;4921393;29;20457;-85
2023/06/28 05:08:35;;;;;;;6.80;4.35;;;15.70;99.90;;;;;;4938456;29;20455;-83
2023/06/28 05:11:02;;;;;;;7.23;3.83;;;15.70;99.90;;;;;;4971076;28;20518;-82
2023/06/28 05:13:28;;;;;;;5.22;3.67;;;15.60;99.90;;;;;;4905923;29;20434;-85
2023/06/28 05:15:54;;;;;;;5.65;4.28;;;15.60;99.90;;;;;;4913287;28;20442;-85
2023/06/28 05:18:20;;;;;;;9.05;4.70;;;15.70;99.90;;;;;;4912031;28;20444;-84
2023/06/28 05:20:46;;;;;;;7.07;4.50;;;15.70;99.90;;;;;;4925841;28;20518;-83
2023/06/28 05:23:23;;;;;;;6.80;4.20;;;15.70;99.90;;;;;;4933772;29;20424;-83
2023/06/28 05:25:49;;;;;;;7.43;4.68;;;15.70;99.90;;;;;;4934121;28;20439;-83
2023/06/28 05:28:15;;;;;;;7.38;4.80;;;15.70;99.90;;;;;;4917616;28;20761;-84
2023/06/28 05:30:43;;;;;;;7.70;4.97;;;15.80;99.90;;;;;;4924714;28;20429;-85
2023/06/28 05:33:10;;;;;;;10.30;4.97;;;15.80;99.90;;;;;;4926071;28;20441;-84
2023/06/28 05:35:36;;;;;;;8.20;4.88;;;15.80;99.90;;;;;;4911271;29;20429;-83
2023/06/28 05:38:03;;;;;;;9.30;5.32;;;15.80;99.90;;;;;;4922205;29;20491;-84
2023/06/28 05:40:30;;;;;;;7.70;4.85;;;15.90;99.90;;;;;;4924192;28;20495;-84
2023/06/28 05:42:58;;;;;;;9.75;5.03;;;15.90;99.90;;;;;;4943694;28;20422;-84
2023/06/28 05:45:25;;;;;;;8.38;4.93;;;15.80;99.90;;;;;;4922674;29;20512;-84
2023/06/28 05:47:52;;;;;;;8.82;5.63;;;15.70;99.90;;;;;;4924613;28;20502;-86
2023/06/28 05:50:20;;;;;;;10.75;5.03;;;15.80;99.90;;;;;;4929276;28;20430;-86
2023/06/28 05:52:46;;;;;;;8.02;5.20;;;15.80;99.90;;;;;;4916946;28;20780;-84
2023/06/28 05:55:12;;;;;;;14.68;6.72;;;15.70;99.90;;;;;;4920952;29;20429;-84
2023/06/28 05:57:39;;;;;;;8.95;5.60;;;15.80;99.90;;;;;;4917430;29;20480;-80
2023/06/28 06:02:57;;;;;;;8.98;6.45;;;15.80;99.90;;;;;;4927926;28;20562;-82
2023/06/28 06:05:23;;;;;;;11.32;6.88;;;15.70;99.90;;;;;;4926301;29;20459;-87
2023/06/28 06:07:48;;;;;;;11.13;6.38;;;15.80;99.90;;;;;;4941601;29;20444;-85
2023/06/28 06:10:14;;;;;;;14.02;6.90;;;15.70;99.90;;;;;;4926198;28;20487;-84
2023/06/28 06:12:40;;;;;;;11.32;5.93;;;15.80;99.90;;;;;;4923520;29;20529;-85
2023/06/28 06:15:06;;;;;;;15.27;6.40;;;15.60;99.90;;;;;;4943184;29;20424;-86
2023/06/28 06:17:32;;;;;;;11.90;6.80;;;15.70;99.90;;;;;;4977660;28;20449;-82
2023/06/28 06:20:00;;;;;;;11.98;6.45;;;15.70;99.90;;;;;;4913744;28;20885;-88
2023/06/28 06:22:28;;;;;;;11.75;6.35;;;15.70;99.90;;;;;;4928800;29;20428;-85
2023/06/28 06:24:54;;;;;;;11.40;7.03;;;15.60;99.90;;;;;;4911348;28;20427;-85
2023/06/28 06:27:20;;;;;;;11.27;6.45;;;15.70;99.90;;;;;;4931605;28;20437;-83
2023/06/28 06:29:46;;;;;;;14.60;6.72;;;15.60;99.90;;;;;;4923370;29;20776;-88
2023/06/28 06:32:11;;;;;;;11.30;5.72;;;16.10;99.90;;;;;;4947159;28;20445;-87
2023/06/28 06:34:39;;;;;;;10.55;6.22;;;15.70;99.90;;;;;;4909348;28;20442;-86
2023/06/28 06:37:11;;;;;;;13.20;6.90;;;15.60;99.90;;;;;;4975217;28;20436;-86
2023/06/28 06:39:43;;;;;;;12.77;6.53;;;15.70;99.90;;;;;;4893015;29;20460;-90
2023/06/28 06:42:25;;;;;;;11.75;6.97;;;15.70;99.90;;;;;;4926295;28;20445;-85
2023/06/28 06:44:51;;;;;;;11.75;6.60;;;15.90;99.90;;;;;;4891056;28;20500;-90
2023/06/28 06:47:21;;;;;;;15.57;7.78;;;15.80;99.90;;;;;;4894007;29;20521;-86
2023/06/28 06:49:53;;;;;;;15.38;7.95;;;15.70;99.90;;;;;;4893991;28;20453;-87
2023/06/28 06:52:21;;;;;;;10.45;7.40;;;15.90;99.90;;;;;;4895179;29;20437;-92
2023/06/28 06:55:00;;;;;;;11.13;7.03;;;14.90;99.90;;;;;;4921142;28;20541;-90
2023/06/28 06:57:28;;;;;;;12.75;7.25;;;15.90;99.90;;;;;;4926624;28;20445;-89
2023/06/28 06:59:54;;;;;;;14.60;7.95;;;15.90;99.90;;;;;;4910278;28;20729;-88
2023/06/28 07:02:21;;;;;;;19.93;8.10;;;15.90;99.90;;;;;;4910349;28;20449;-90
2023/06/28 07:04:55;;;;;;;11.68;7.00;;;15.90;99.90;;;;;;4941082;29;20431;-86
2023/06/28 07:08:01;;;;;;;;;;;;;;;;;;;;;
2023/06/28 07:10:39;;;;;;;9.80;6.75;;;15.90;99.90;;;;;;4887869;29;20427;-86
2023/06/28 07:13:10;;;;;;;10.57;7.78;;;16.00;99.90;;;;;;4922577;28;20499;-90
2023/06/28 07:15:36;;;;;;;13.45;7.10;;;17.30;99.90;;;;;;4927355;28;20495;-85
2023/06/28 07:18:01;;;;;;;10.50;7.20;;;15.80;99.90;;;;;;4925251;28;20413;-90
2023/06/28 07:20:28;;;;;;;10.55;7.03;;;15.90;99.90;;;;;;4925584;28;20456;-87
2023/06/28 07:22:53;;;;;;;12.73;7.07;;;16.00;99.90;;;;;;4910057;28;20421;-88
2023/06/28 07:25:19;;;;;;;12.10;7.17;;;16.00;99.90;;;;;;4967252;28;20422;-88
2023/06/28 07:27:47;;;;;;;11.98;7.03;;;16.00;99.90;;;;;;4924797;29;20473;-89
2023/06/28 07:30:13;;;;;;;14.83;8.03;;;16.00;99.90;;;;;;4974453;28;20590;-88
2023/06/28 07:32:39;;;;;;;10.95;6.95;;;16.20;99.90;;;;;;4949573;28;20609;-91
2023/06/28 07:35:10;;;;;;;12.00;7.97;;;17.70;99.90;;;;;;4938034;28;20511;-87
2023/06/28 07:37:36;;;;;;;13.53;7.37;;;16.40;99.90;;;;;;4892869;29;20424;-92
2023/06/28 07:40:02;;;;;;;13.33;6.70;;;14.60;99.90;;;;;;4977366;28;20432;-87
2023/06/28 07:42:29;;;;;;;14.77;7.50;;;15.90;99.90;;;;;;4936504;28;20634;-86
2023/06/28 07:44:55;;;;;;;14.13;7.10;;;16.10;99.90;;;;;;4974909;28;20520;-86
2023/06/28 07:47:21;;;;;;;14.67;8.07;;;16.30;99.90;;;;;;4907295;29;20486;-86
2023/06/28 07:49:47;;;;;;;10.03;6.73;;;16.10;99.90;;;;;;4965480;28;20506;-87
2023/06/28 07:52:12;;;;;;;12.73;7.63;;;16.10;99.90;;;;;;4894794;29;20472;-88
2023/06/28 07:54:39;;;;;;;13.37;8.10;;;16.30;99.90;;;;;;4935158;29;20429;-87
2023/06/28 07:57:05;;;;;;;13.40;7.70;;;15.90;99.90;;;;;;4931716;28;20433;-84
2023/06/28 07:59:31;;;;;;;12.85;7.53;;;16.20;99.90;;;;;;4895547;28;20992;-86
2023/06/28 08:01:57;;;;;;;12.52;7.82;;;16.20;99.90;;;;;;4917246;29;20413;-86
2023/06/28 08:04:32;;;;;;;14.65;8.43;;;16.40;99.90;;;;;;4916574;29;20456;-83
2023/06/28 08:06:59;;;;;;;12.60;7.50;;;16.20;99.90;;;;;;4900699;29;20508;-87
2023/06/28 08:09:47;;;;;;;14.23;8.10;;;16.20;99.90;;;;;;4913445;29;20500;-88
2023/06/28 08:12:42;;;;;;;12.55;8.50;;;16.00;99.90;;;;;;4913701;28;20457;-86
2023/06/28 08:15:13;;;;;;;11.13;7.83;;;16.70;99.90;;;;;;4905652;29;20436;-93
2023/06/28 08:17:39;;;;;;;16.77;9.00;;;16.20;99.90;;;;;;4913500;29;20420;-92
2023/06/28 08:20:06;;;;;;;12.80;7.97;;;16.20;99.90;;;;;;4902145;29;20481;-88
2023/06/28 08:22:48;;;;;;;12.52;8.80;;;16.40;99.90;;;;;;4897081;28;20440;-90
2023/06/28 08:25:17;;;;;;;15.77;8.88;;;16.20;99.90;;;;;;4989808;28;20480;-84
2023/06/28 08:27:50;;;;;;;14.05;8.75;;;16.10;99.90;;;;;;4951606;28;20456;-84
2023/06/28 08:30:24;;;;;;;12.38;8.70;;;16.30;99.90;;;;;;4935636;29;20474;-88
2023/06/28 08:32:50;;;;;;;14.55;9.68;;;15.90;99.90;;;;;;4897598;29;20430;-83
2023/06/28 08:35:16;;;;;;;16.83;9.85;;;16.50;99.90;;;;;;4926716;29;20453;-89
2023/06/28 08:37:42;;;;;;;14.38;9.95;;;15.30;99.90;;;;;;4957494;28;20461;-87
2023/06/28 08:40:10;;;;;;;14.75;10.20;;;16.40;99.90;;;;;;4929537;28;20478;-85
2023/06/28 08:42:39;;;;;;;19.30;11.20;;;16.40;99.90;;;;;;4928960;29;20488;-83
2023/06/28 08:45:05;;;;;;;16.42;11.15;;;16.10;99.90;;;;;;5003469;28;20470;-88
2023/06/28 08:47:32;;;;;;;15.20;10.45;;;16.40;99.90;;;;;;4951743;29;20443;-84
2023/06/28 08:49:59;;;;;;;14.80;10.38;;;16.60;99.90;;;;;;4909490;28;20742;-85
2023/06/28 08:52:26;;;;;;;17.20;11.43;;;16.50;99.90;;;;;;4935706;29;20467;-81
2023/06/28 08:54:53;;;;;;;16.00;11.63;;;16.40;99.90;;;;;;4938548;28;20434;-86
2023/06/28 08:57:20;;;;;;;16.10;11.63;;;16.40;99.90;;;;;;4936910;28;20469;-81
2023/06/28 08:59:46;;;;;;;15.20;10.75;;;16.50;99.90;;;;;;4941527;28;20792;-84
2023/06/28 09:02:17;;;;;;;15.47;10.67;;;16.10;99.90;;;;;;4928926;29;20430;-88
2023/06/28 09:04:44;;;;;;;15.43;11.20;;;16.50;99.90;;;;;;4889177;29;20429;-84
2023/06/28 09:07:13;;;;;;;16.95;11.85;;;16.60;99.90;;;;;;4872882;29;20446;-84
2023/06/28 09:09:42;;;;;;;19.42;12.30;;;16.60;99.90;;;;;;4884562;29;20861;-83
2023/06/28 09:12:09;;;;;;;18.48;13.48;;;16.60;99.90;;;;;;4887559;29;20432;-82
2023/06/28 09:14:35;;;;;;;16.30;12.73;;;16.70;99.90;;;;;;4885299;29;20424;-82
2023/06/28 09:17:01;;;;;;;16.60;13.60;;;16.70;99.90;;;;;;4961374;28;20490;-84
2023/06/28 09:19:27;;;;;;;15.88;12.70;;;16.90;99.90;;;;;;4913558;28;20424;-84
2023/06/28 09:22:01;;;;;;;19.00;12.10;;;16.70;99.90;;;;;;4983204;28;20463;-83
2023/06/28 09:24:27;;;;;;;20.47;12.30;;;16.70;99.90;;;;;;4989969;28;20456;-84
2023/06/28 09:26:52;;;;;;;15.67;11.63;;;16.80;99.90;;;;;;4912520;28;20445;-84
2023/06/28 09:29:18;;;;;;;14.40;12.38;;;16.80;99.90;;;;;;4891337;29;21052;-81
2023/06/28 09:31:45;;;;;;;13.82;12.20;;;16.70;99.90;;;;;;4885717;29;20445;-85
2023/06/28 09:34:11;;;;;;;18.55;13.45;;;16.80;99.90;;;;;;4888122;28;20496;-81
2023/06/28 09:36:45;;;;;;;14.68;12.23;;;16.70;99.90;;;;;;4885997;29;20819;-83
2023/06/28 09:39:11;;;;;;;16.45;12.63;;;16.70;99.90;;;;;;4888362;29;20433;-86
2023/06/28 09:41:42;;;;;;;18.80;13.43;;;16.90;99.90;;;;;;4900595;29;20502;-84
2023/06/28 09:44:11;;;;;;;13.88;12.10;;;16.50;99.90;;;;;;4885971;29;20426;-81
2023/06/28 09:46:44;;;;;;;14.68;11.73;;;16.10;99.90;;;;;;4877942;29;20480;-81
2023/06/28 09:49:23;;;;;;;18.38;13.90;;;17.00;99.90;;;;;;4884294;29;20431;-82
2023/06/28 09:51:57;;;;;;;15.68;12.85;;;17.00;99.90;;;;;;4883999;29;20980;-81
2023/06/28 09:54:30;;;;;;;15.40;12.07;;;17.10;99.90;;;;;;4867008;29;20436;-80
2023/06/28 09:56:57;;;;;;;19.13;12.80;;;17.10;99.90;;;;;;4882584;29;20479;-81
2023/06/28 09:59:27;;;;;;;13.25;11.27;;;17.10;99.90;;;;;;4886924;28;20791;-81
2023/06/28 10:01:56;;;;;;;16.27;12.38;;;17.00;99.90;;;;;;4865156;29;20498;-82
2023/06/28 10:04:25;;;;;;;15.68;11.40;;;17.20;99.90;;;;;;4915675;29;20436;-81
2023/06/28 10:06:51;;;;;;;16.65;13.05;;;17.10;99.90;;;;;;4920710;28;20445;-82
2023/06/28 10:09:21;;;;;;;14.57;11.65;;;17.10;99.90;;;;;;4935100;28;20440;-79
2023/06/28 10:11:48;;;;;;;15.47;11.73;;;17.20;99.90;;;;;;4920669;29;20446;-81
2023/06/28 10:14:17;;;;;;;14.43;12.38;;;17.20;99.90;;;;;;4916969;29;20452;-84
2023/06/28 10:16:45;;;;;;;17.13;13.05;;;17.30;99.90;;;;;;4926575;28;20444;-83
2023/06/28 10:19:11;;;;;;;14.10;12.60;;;17.30;99.90;;;;;;4920158;29;20444;-82
2023/06/28 10:21:39;;;;;;;13.48;11.48;;;17.30;99.90;;;;;;4921797;29;20437;-81
2023/06/28 10:24:06;;;;;;;14.02;11.77;;;17.20;99.90;;;;;;4921127;29;20513;-82
2023/06/28 10:26:33;;;;;;;14.30;12.43;;;17.20;99.90;;;;;;4920453;29;20433;-80
2023/06/28 10:29:00;;;;;;;13.93;12.30;;;17.60;99.90;;;;;;4986597;28;20453;-81
2023/06/28 10:31:26;;;;;;;14.83;12.33;;;17.30;99.90;;;;;;4913326;28;20566;-82
2023/06/28 10:33:54;;;;;;;14.15;12.75;;;17.30;99.90;;;;;;4918485;29;20406;-82
2023/06/28 10:36:21;;;;;;;14.82;12.70;;;17.20;99.90;;;;;;4924358;28;20437;-84
2023/06/28 10:38:50;;;;;;;15.18;12.77;;;18.10;99.90;;;;;;4915099;28;20533;-83
2023/06/28 10:41:19;;;;;;;16.48;12.80;;;17.20;99.90;;;;;;4900116;29;20462;-84
2023/06/28 10:43:45;;;;;;;16.58;12.85;;;17.10;99.90;;;;;;4917194;29;20489;-81
2023/06/28 10:46:22;;;;;;;17.40;13.20;;;17.10;99.90;;;;;;4913277;29;20446;-84
2023/06/28 10:48:51;;;;;;;17.15;14.40;;;17.10;99.90;;;;;;4907061;28;20458;-87
2023/06/28 10:51:20;;;;;;;18.85;14.48;;;17.10;99.90;;;;;;4910166;28;20459;-84
2023/06/28 10:53:55;;;;;;;15.13;13.60;;;17.00;99.90;;;;;;4930210;28;20432;-85
2023/06/28 10:56:21;;;;;;;16.00;14.40;;;17.20;99.90;;;;;;4908794;29;20504;-78
2023/06/28 10:58:53;;;;;;;16.67;14.95;;;17.10;99.90;;;;;;4925901;29;20447;-83
2023/06/28 11:01:38;;;;;;;17.52;15.23;;;17.10;99.90;;;;;;4942112;28;20428;-83
2023/06/28 11:04:13;;;;;;;17.58;15.63;;;17.20;99.90;;;;;;4941750;29;20427;-85
2023/06/28 11:06:40;;;;;;;21.77;16.83;;;17.30;99.90;;;;;;4911260;29;20585;-84
2023/06/28 11:09:16;;;;;;;21.65;17.42;;;17.30;99.90;;;;;;4929224;29;20414;-86
2023/06/28 11:11:51;;;;;;;21.73;17.98;;;17.30;99.90;;;;;;4892255;29;20432;-87
2023/06/28 11:14:19;;;;;;;19.88;17.83;;;17.30;99.90;;;;;;4985262;28;20465;-84
2023/06/28 11:16:48;;;;;;;21.13;18.87;;;17.40;99.90;;;;;;5002808;28;20557;-83
2023/06/28 11:19:15;;;;;;;19.70;17.70;;;17.40;99.90;;;;;;4973842;28;20410;-87
2023/06/28 11:21:41;;;;;;;22.90;19.55;;;17.40;99.90;;;;;;5011846;28;20431;-84
2023/06/28 11:24:07;;;;;;;26.42;20.80;;;17.40;99.90;;;;;;5007310;28;20417;-83
2023/06/28 11:26:37;;;;;;;21.30;19.05;;;17.50;99.90;;;;;;5005738;28;20432;-84
2023/06/28 11:29:17;;;;;;;24.08;20.83;;;17.30;99.90;;;;;;4925766;28;20536;-83
2023/06/28 11:31:55;;;;;;;23.50;19.43;;;17.50;99.90;;;;;;5005725;28;20461;-82
2023/06/28 11:34:21;;;;;;;20.40;18.25;;;17.50;99.90;;;;;;5004935;28;20513;-84
2023/06/28 11:36:48;;;;;;;22.27;19.23;;;17.50;99.90;;;;;;4973187;28;20443;-84
2023/06/28 11:39:18;;;;;;;25.60;20.17;;;17.40;99.90;;;;;;4910675;28;20525;-83
2023/06/28 11:41:45;;;;;;;25.17;20.85;;;17.60;99.90;;;;;;4961818;28;20456;-83
2023/06/28 11:44:12;;;;;;;22.38;19.45;;;17.50;99.90;;;;;;4902451;29;20445;-85
2023/06/28 11:46:39;;;;;;;26.05;21.85;;;17.60;99.90;;;;;;4916496;29;20456;-82
2023/06/28 11:49:06;;;;;;;23.10;20.48;;;17.60;99.90;;;;;;4906492;28;20440;-84
2023/06/28 11:51:32;;;;;;;28.65;23.38;;;17.60;99.90;;;;;;4906301;28;20438;-83
2023/06/28 11:53:58;;;;;;;27.52;22.27;;;16.80;99.90;;;;;;4892452;29;20610;-83
2023/06/28 11:56:46;;;;;;;29.65;25.33;;;17.50;99.90;;;;;;4907972;29;20436;-85
2023/06/28 11:59:17;;;;;;;27.33;24.50;;;17.60;99.90;;;;;;4924558;28;20413;-84
2023/06/28 12:01:46;;;;;;;31.95;25.35;;;17.50;99.90;;;;;;4907391;29;20430;-86
2023/06/28 12:04:20;;;;;;;29.03;25.23;;;17.50;99.90;;;;;;4917826;28;20452;-81
2023/06/28 12:06:46;;;;;;;29.67;25.85;;;17.70;99.90;;;;;;4888653;29;21030;-85
2023/06/28 12:09:29;;;;;;;30.73;25.80;;;17.70;99.90;;;;;;4870978;29;20440;-82
2023/06/28 12:11:58;;;;;;;33.63;28.20;;;17.60;99.90;;;;;;4887469;29;20436;-86
2023/06/28 12:14:28;;;;;;;33.47;27.63;;;17.90;99.90;;;;;;4902457;28;20417;-81
2023/06/28 12:16:55;;;;;;;37.28;29.67;;;17.90;99.90;;;;;;4870722;29;20457;-81
2023/06/28 12:19:27;;;;;;;30.75;27.52;;;17.80;99.90;;;;;;4870942;29;20516;-85
2023/06/28 12:21:54;;;;;;;30.42;27.17;;;17.90;99.90;;;;;;4887584;29;20421;-80
2023/06/28 12:24:24;;;;;;;34.87;28.03;;;17.90;99.90;;;;;;4887985;29;20429;-88
2023/06/28 12:26:52;;;;;;;35.47;29.17;;;18.00;99.90;;;;;;4887883;29;20472;-83
2023/06/28 12:29:22;;;;;;;33.05;29.45;;;17.90;99.90;;;;;;4878177;29;20436;-78
2023/06/28 12:31:51;;;;;;;34.75;29.58;;;18.00;99.90;;;;;;4895402;29;20676;-81
2023/06/28 12:34:24;;;;;;;31.97;28.43;;;18.00;99.90;;;;;;4895450;29;20409;-80
2023/06/28 12:37:15;;;;;;;34.55;29.15;;;18.00;99.90;;;;;;4888936;28;20492;-86
2023/06/28 12:39:42;;;;;;;34.47;30.55;;;18.00;99.90;;;;;;4904434;29;20480;-87
2023/06/28 12:42:16;;;;;;;35.97;31.77;;;18.20;99.90;;;;;;4889863;29;20486;-86
2023/06/28 12:45:01;;;;;;;41.75;30.73;;;18.20;99.90;;;;;;4892956;29;20423;-86